METAR Data
IDs: Format: Raw Decoded Include TAF

Data at: 2153 UTC 02 Aug 2021

ESGJ 022150Z 27005KT CAVOK 07/07 Q1008